sensor_id;sensor_type;location;lat;lon;timestamp;P1;durP1;ratioP1;P2;durP2;ratioP2
6485;SDS011;3276;48.490;9.222;2023-07-16T00:00:04;6.90;;;5.40;;
6485;SDS011;3276;48.490;9.222;2023-07-16T00:02:34;5.10;;;4.60;;
6485;SDS011;3276;48.490;9.222;2023-07-16T00:04:59;6.40;;;5.17;;
6485;SDS011;3276;48.490;9.222;2023-07-16T00:07:25;7.87;;;7.10;;
6485;SDS011;3276;48.490;9.222;2023-07-16T00:09:51;7.47;;;5.53;;
6485;SDS011;3276;48.490;9.222;2023-07-16T00:12:17;9.70;;;5.93;;
6485;SDS011;3276;48.490;9.222;2023-07-16T00:14:42;5.27;;;3.83;;
6485;SDS011;3276;48.490;9.222;2023-07-16T00:17:08;3.57;;;3.03;;
6485;SDS011;3276;48.490;9.222;2023-07-16T00:19:33;3.70;;;2.27;;
6485;SDS011;3276;48.490;9.222;2023-07-16T00:21:59;3.37;;;2.20;;
6485;SDS011;3276;48.490;9.222;2023-07-16T00:24:25;2.50;;;1.83;;
6485;SDS011;3276;48.490;9.222;2023-07-16T00:26:52;4.53;;;2.90;;
6485;SDS011;3276;48.490;9.222;2023-07-16T00:29:17;3.50;;;2.67;;
6485;SDS011;3276;48.490;9.222;2023-07-16T00:31:43;3.60;;;2.53;;
6485;SDS011;3276;48.490;9.222;2023-07-16T00:34:09;2.87;;;2.50;;
6485;SDS011;3276;48.490;9.222;2023-07-16T00:36:40;3.03;;;2.73;;
6485;SDS011;3276;48.490;9.222;2023-07-16T00:39:06;3.77;;;3.10;;
6485;SDS011;3276;48.490;9.222;2023-07-16T00:41:31;2.27;;;1.77;;
6485;SDS011;3276;48.490;9.222;2023-07-16T00:43:57;5.17;;;2.53;;
6485;SDS011;3276;48.490;9.222;2023-07-16T00:46:23;4.73;;;2.60;;
6485;SDS011;3276;48.490;9.222;2023-07-16T00:48:49;3.93;;;2.77;;
6485;SDS011;3276;48.490;9.222;2023-07-16T00:51:15;2.70;;;2.17;;
6485;SDS011;3276;48.490;9.222;2023-07-16T00:53:41;3.50;;;2.83;;
6485;SDS011;3276;48.490;9.222;2023-07-16T00:56:09;4.10;;;3.70;;
6485;SDS011;3276;48.490;9.222;2023-07-16T00:58:36;4.07;;;2.80;;
6485;SDS011;3276;48.490;9.222;2023-07-16T01:01:01;5.10;;;2.23;;
6485;SDS011;3276;48.490;9.222;2023-07-16T01:03:27;8.17;;;2.47;;
6485;SDS011;3276;48.490;9.222;2023-07-16T01:11:03;1.93;;;1.30;;
6485;SDS011;3276;48.490;9.222;2023-07-16T01:13:29;5.40;;;1.27;;
6485;SDS011;3276;48.490;9.222;2023-07-16T01:15:55;2.17;;;1.30;;
6485;SDS011;3276;48.490;9.222;2023-07-16T01:18:21;3.00;;;1.87;;
6485;SDS011;3276;48.490;9.222;2023-07-16T01:20:46;2.90;;;1.20;;
6485;SDS011;3276;48.490;9.222;2023-07-16T01:23:22;2.30;;;1.30;;
6485;SDS011;3276;48.490;9.222;2023-07-16T01:26:19;3.40;;;1.60;;
6485;SDS011;3276;48.490;9.222;2023-07-16T01:29:28;2.20;;;1.33;;
6485;SDS011;3276;48.490;9.222;2023-07-16T01:32:14;3.80;;;1.70;;
6485;SDS011;3276;48.490;9.222;2023-07-16T01:34:40;2.57;;;1.20;;
6485;SDS011;3276;48.490;9.222;2023-07-16T01:37:07;2.10;;;1.40;;
6485;SDS011;3276;48.490;9.222;2023-07-16T01:39:34;2.57;;;1.20;;
6485;SDS011;3276;48.490;9.222;2023-07-16T01:41:59;1.80;;;1.10;;
6485;SDS011;3276;48.490;9.222;2023-07-16T01:44:26;3.10;;;1.30;;
6485;SDS011;3276;48.490;9.222;2023-07-16T01:49:31;2.47;;;1.00;;
6485;SDS011;3276;48.490;9.222;2023-07-16T01:51:59;2.60;;;1.20;;
6485;SDS011;3276;48.490;9.222;2023-07-16T01:54:26;2.27;;;1.33;;
6485;SDS011;3276;48.490;9.222;2023-07-16T01:56:52;2.00;;;1.13;;
6485;SDS011;3276;48.490;9.222;2023-07-16T01:59:17;2.53;;;1.53;;
6485;SDS011;3276;48.490;9.222;2023-07-16T02:01:43;2.83;;;1.33;;
6485;SDS011;3276;48.490;9.222;2023-07-16T02:04:08;2.33;;;1.33;;
6485;SDS011;3276;48.490;9.222;2023-07-16T02:06:34;2.27;;;1.33;;
6485;SDS011;3276;48.490;9.222;2023-07-16T02:08:59;2.53;;;1.30;;
6485;SDS011;3276;48.490;9.222;2023-07-16T02:11:25;2.40;;;1.37;;
6485;SDS011;3276;48.490;9.222;2023-07-16T02:13:50;2.07;;;1.03;;
6485;SDS011;3276;48.490;9.222;2023-07-16T02:16:16;3.03;;;1.00;;
6485;SDS011;3276;48.490;9.222;2023-07-16T02:18:42;1.90;;;1.00;;
6485;SDS011;3276;48.490;9.222;2023-07-16T02:21:08;2.10;;;1.20;;
6485;SDS011;3276;48.490;9.222;2023-07-16T02:23:33;2.90;;;1.57;;
6485;SDS011;3276;48.490;9.222;2023-07-16T02:25:59;2.17;;;1.10;;
6485;SDS011;3276;48.490;9.222;2023-07-16T02:28:25;2.07;;;1.47;;
6485;SDS011;3276;48.490;9.222;2023-07-16T02:30:51;2.50;;;1.67;;
6485;SDS011;3276;48.490;9.222;2023-07-16T02:33:16;2.40;;;1.37;;
6485;SDS011;3276;48.490;9.222;2023-07-16T02:35:46;3.40;;;1.40;;
6485;SDS011;3276;48.490;9.222;2023-07-16T02:38:13;2.50;;;1.30;;
6485;SDS011;3276;48.490;9.222;2023-07-16T02:40:43;3.50;;;1.53;;
6485;SDS011;3276;48.490;9.222;2023-07-16T02:43:09;1.80;;;1.10;;
6485;SDS011;3276;48.490;9.222;2023-07-16T02:45:35;1.87;;;0.97;;
6485;SDS011;3276;48.490;9.222;2023-07-16T02:48:00;2.63;;;1.30;;
6485;SDS011;3276;48.490;9.222;2023-07-16T02:50:26;2.50;;;1.60;;
6485;SDS011;3276;48.490;9.222;2023-07-16T02:52:52;2.27;;;1.40;;
6485;SDS011;3276;48.490;9.222;2023-07-16T02:55:18;2.20;;;1.33;;
6485;SDS011;3276;48.490;9.222;2023-07-16T02:57:43;2.20;;;1.13;;
6485;SDS011;3276;48.490;9.222;2023-07-16T03:00:09;3.10;;;1.40;;
6485;SDS011;3276;48.490;9.222;2023-07-16T03:02:35;1.70;;;1.17;;
6485;SDS011;3276;48.490;9.222;2023-07-16T03:05:00;2.60;;;1.70;;
6485;SDS011;3276;48.490;9.222;2023-07-16T03:07:26;1.80;;;1.07;;
6485;SDS011;3276;48.490;9.222;2023-07-16T03:09:51;2.40;;;1.20;;
6485;SDS011;3276;48.490;9.222;2023-07-16T03:12:17;2.10;;;1.37;;
6485;SDS011;3276;48.490;9.222;2023-07-16T03:14:43;2.00;;;1.27;;
6485;SDS011;3276;48.490;9.222;2023-07-16T03:17:08;1.93;;;1.00;;
6485;SDS011;3276;48.490;9.222;2023-07-16T03:19:34;2.30;;;1.50;;
6485;SDS011;3276;48.490;9.222;2023-07-16T03:21:59;2.30;;;1.40;;
6485;SDS011;3276;48.490;9.222;2023-07-16T03:24:25;2.47;;;1.50;;
6485;SDS011;3276;48.490;9.222;2023-07-16T03:26:50;2.07;;;1.30;;
6485;SDS011;3276;48.490;9.222;2023-07-16T03:29:16;3.00;;;1.67;;
6485;SDS011;3276;48.490;9.222;2023-07-16T03:31:41;2.87;;;1.40;;
6485;SDS011;3276;48.490;9.222;2023-07-16T03:34:07;2.10;;;1.70;;
6485;SDS011;3276;48.490;9.222;2023-07-16T03:36:32;2.60;;;1.83;;
6485;SDS011;3276;48.490;9.222;2023-07-16T03:38:58;2.60;;;1.30;;
6485;SDS011;3276;48.490;9.222;2023-07-16T03:41:24;4.77;;;1.80;;
6485;SDS011;3276;48.490;9.222;2023-07-16T03:43:49;2.03;;;1.20;;
6485;SDS011;3276;48.490;9.222;2023-07-16T03:46:15;2.40;;;1.13;;
6485;SDS011;3276;48.490;9.222;2023-07-16T03:48:41;1.90;;;1.00;;
6485;SDS011;3276;48.490;9.222;2023-07-16T03:51:06;2.20;;;1.20;;
6485;SDS011;3276;48.490;9.222;2023-07-16T03:53:32;2.10;;;1.40;;
6485;SDS011;3276;48.490;9.222;2023-07-16T03:55:57;2.10;;;1.30;;
6485;SDS011;3276;48.490;9.222;2023-07-16T03:58:23;2.10;;;1.30;;
6485;SDS011;3276;48.490;9.222;2023-07-16T04:00:48;2.20;;;1.23;;
6485;SDS011;3276;48.490;9.222;2023-07-16T04:03:14;2.23;;;1.43;;
6485;SDS011;3276;48.490;9.222;2023-07-16T04:05:39;3.37;;;1.50;;
6485;SDS011;3276;48.490;9.222;2023-07-16T04:08:05;3.80;;;1.80;;
6485;SDS011;3276;48.490;9.222;2023-07-16T04:10:31;2.47;;;1.23;;
6485;SDS011;3276;48.490;9.222;2023-07-16T04:12:56;3.47;;;1.40;;
6485;SDS011;3276;48.490;9.222;2023-07-16T04:15:22;3.17;;;1.13;;
6485;SDS011;3276;48.490;9.222;2023-07-16T04:17:48;2.63;;;1.20;;
6485;SDS011;3276;48.490;9.222;2023-07-16T04:20:13;2.20;;;1.40;;
6485;SDS011;3276;48.490;9.222;2023-07-16T04:22:39;2.43;;;1.13;;
6485;SDS011;3276;48.490;9.222;2023-07-16T04:25:05;4.20;;;1.80;;
6485;SDS011;3276;48.490;9.222;2023-07-16T04:27:30;2.90;;;1.63;;
6485;SDS011;3276;48.490;9.222;2023-07-16T04:29:56;2.60;;;1.27;;
6485;SDS011;3276;48.490;9.222;2023-07-16T04:32:22;2.40;;;0.93;;
6485;SDS011;3276;48.490;9.222;2023-07-16T04:34:47;2.63;;;1.87;;
6485;SDS011;3276;48.490;9.222;2023-07-16T04:37:13;2.17;;;1.33;;
6485;SDS011;3276;48.490;9.222;2023-07-16T04:39:39;2.30;;;1.53;;
6485;SDS011;3276;48.490;9.222;2023-07-16T04:42:04;4.23;;;2.00;;
6485;SDS011;3276;48.490;9.222;2023-07-16T04:44:30;2.47;;;1.40;;
6485;SDS011;3276;48.490;9.222;2023-07-16T04:46:55;2.87;;;1.67;;
6485;SDS011;3276;48.490;9.222;2023-07-16T04:49:21;4.30;;;1.50;;
6485;SDS011;3276;48.490;9.222;2023-07-16T04:51:47;2.70;;;1.67;;
6485;SDS011;3276;48.490;9.222;2023-07-16T04:54:12;4.63;;;1.70;;
6485;SDS011;3276;48.490;9.222;2023-07-16T04:56:38;5.00;;;1.90;;
6485;SDS011;3276;48.490;9.222;2023-07-16T04:59:04;2.30;;;1.33;;
6485;SDS011;3276;48.490;9.222;2023-07-16T05:01:29;3.67;;;1.60;;
6485;SDS011;3276;48.490;9.222;2023-07-16T05:03:55;3.40;;;1.47;;
6485;SDS011;3276;48.490;9.222;2023-07-16T05:06:20;3.13;;;1.30;;
6485;SDS011;3276;48.490;9.222;2023-07-16T05:08:46;4.57;;;1.60;;
6485;SDS011;3276;48.490;9.222;2023-07-16T05:11:12;6.33;;;1.50;;
6485;SDS011;3276;48.490;9.222;2023-07-16T05:13:38;4.67;;;1.77;;
6485;SDS011;3276;48.490;9.222;2023-07-16T05:16:03;3.70;;;1.20;;
6485;SDS011;3276;48.490;9.222;2023-07-16T05:18:29;3.27;;;2.17;;
6485;SDS011;3276;48.490;9.222;2023-07-16T05:20:55;8.00;;;2.10;;
6485;SDS011;3276;48.490;9.222;2023-07-16T05:23:20;1.87;;;1.10;;
6485;SDS011;3276;48.490;9.222;2023-07-16T05:25:47;2.73;;;1.30;;
6485;SDS011;3276;48.490;9.222;2023-07-16T05:28:13;12.50;;;2.67;;
6485;SDS011;3276;48.490;9.222;2023-07-16T05:30:39;3.03;;;1.43;;
6485;SDS011;3276;48.490;9.222;2023-07-16T05:33:05;10.87;;;1.67;;
6485;SDS011;3276;48.490;9.222;2023-07-16T05:35:31;6.50;;;1.70;;
6485;SDS011;3276;48.490;9.222;2023-07-16T05:37:56;2.53;;;1.47;;
6485;SDS011;3276;48.490;9.222;2023-07-16T05:40:22;2.23;;;1.30;;
6485;SDS011;3276;48.490;9.222;2023-07-16T05:42:47;3.30;;;1.67;;
6485;SDS011;3276;48.490;9.222;2023-07-16T05:45:13;3.83;;;1.57;;
6485;SDS011;3276;48.490;9.222;2023-07-16T05:47:38;3.50;;;1.50;;
6485;SDS011;3276;48.490;9.222;2023-07-16T05:50:04;2.40;;;1.30;;
6485;SDS011;3276;48.490;9.222;2023-07-16T05:52:30;2.33;;;1.43;;
6485;SDS011;3276;48.490;9.222;2023-07-16T05:54:56;2.20;;;1.50;;
6485;SDS011;3276;48.490;9.222;2023-07-16T05:57:22;3.17;;;1.40;;
6485;SDS011;3276;48.490;9.222;2023-07-16T05:59:48;4.87;;;1.37;;
6485;SDS011;3276;48.490;9.222;2023-07-16T06:02:13;3.10;;;1.53;;
6485;SDS011;3276;48.490;9.222;2023-07-16T06:04:39;4.23;;;1.63;;
6485;SDS011;3276;48.490;9.222;2023-07-16T06:07:04;3.20;;;1.50;;
6485;SDS011;3276;48.490;9.222;2023-07-16T06:09:31;2.10;;;1.23;;
6485;SDS011;3276;48.490;9.222;2023-07-16T06:11:56;2.57;;;1.30;;
6485;SDS011;3276;48.490;9.222;2023-07-16T06:14:22;2.80;;;1.80;;
6485;SDS011;3276;48.490;9.222;2023-07-16T06:16:47;2.93;;;1.70;;
6485;SDS011;3276;48.490;9.222;2023-07-16T06:19:13;3.53;;;1.80;;
6485;SDS011;3276;48.490;9.222;2023-07-16T06:21:39;4.90;;;1.70;;
6485;SDS011;3276;48.490;9.222;2023-07-16T06:24:04;2.60;;;1.97;;
6485;SDS011;3276;48.490;9.222;2023-07-16T06:26:31;4.47;;;2.10;;
6485;SDS011;3276;48.490;9.222;2023-07-16T06:28:56;4.10;;;1.70;;
6485;SDS011;3276;48.490;9.222;2023-07-16T06:31:22;2.20;;;1.50;;
6485;SDS011;3276;48.490;9.222;2023-07-16T06:33:47;4.10;;;1.77;;
6485;SDS011;3276;48.490;9.222;2023-07-16T06:36:14;2.33;;;1.90;;
6485;SDS011;3276;48.490;9.222;2023-07-16T06:38:40;3.50;;;1.63;;
6485;SDS011;3276;48.490;9.222;2023-07-16T06:41:06;9.20;;;1.77;;
6485;SDS011;3276;48.490;9.222;2023-07-16T06:43:31;5.33;;;1.40;;
6485;SDS011;3276;48.490;9.222;2023-07-16T06:45:57;2.90;;;1.80;;
6485;SDS011;3276;48.490;9.222;2023-07-16T06:48:22;4.27;;;2.10;;
6485;SDS011;3276;48.490;9.222;2023-07-16T06:50:49;2.73;;;1.90;;
6485;SDS011;3276;48.490;9.222;2023-07-16T06:53:15;2.50;;;1.63;;
6485;SDS011;3276;48.490;9.222;2023-07-16T06:55:41;3.03;;;2.10;;
6485;SDS011;3276;48.490;9.222;2023-07-16T06:58:09;2.10;;;1.50;;
6485;SDS011;3276;48.490;9.222;2023-07-16T07:00:35;3.70;;;2.00;;
6485;SDS011;3276;48.490;9.222;2023-07-16T07:03:01;2.93;;;1.50;;
6485;SDS011;3276;48.490;9.222;2023-07-16T07:05:27;3.40;;;1.50;;
6485;SDS011;3276;48.490;9.222;2023-07-16T07:07:53;2.57;;;1.77;;
6485;SDS011;3276;48.490;9.222;2023-07-16T07:10:18;2.90;;;1.90;;
6485;SDS011;3276;48.490;9.222;2023-07-16T07:12:44;4.33;;;2.30;;
6485;SDS011;3276;48.490;9.222;2023-07-16T07:15:09;2.53;;;2.13;;
6485;SDS011;3276;48.490;9.222;2023-07-16T07:17:35;2.80;;;2.23;;
6485;SDS011;3276;48.490;9.222;2023-07-16T07:20:01;2.60;;;2.40;;
6485;SDS011;3276;48.490;9.222;2023-07-16T07:22:27;4.03;;;3.10;;
6485;SDS011;3276;48.490;9.222;2023-07-16T07:24:53;3.20;;;2.90;;
6485;SDS011;3276;48.490;9.222;2023-07-16T07:27:18;3.73;;;3.53;;
6485;SDS011;3276;48.490;9.222;2023-07-16T07:29:44;4.90;;;4.60;;
6485;SDS011;3276;48.490;9.222;2023-07-16T07:32:11;4.80;;;4.50;;
6485;SDS011;3276;48.490;9.222;2023-07-16T07:34:38;5.90;;;5.43;;
6485;SDS011;3276;48.490;9.222;2023-07-16T07:37:03;6.47;;;5.33;;
6485;SDS011;3276;48.490;9.222;2023-07-16T07:39:29;5.97;;;5.60;;
6485;SDS011;3276;48.490;9.222;2023-07-16T07:41:55;5.60;;;5.30;;
6485;SDS011;3276;48.490;9.222;2023-07-16T07:44:21;5.90;;;5.50;;
6485;SDS011;3276;48.490;9.222;2023-07-16T07:46:46;5.10;;;4.80;;
6485;SDS011;3276;48.490;9.222;2023-07-16T07:49:12;5.67;;;5.27;;
6485;SDS011;3276;48.490;9.222;2023-07-16T07:51:37;5.80;;;5.20;;
6485;SDS011;3276;48.490;9.222;2023-07-16T07:54:03;5.97;;;5.57;;
6485;SDS011;3276;48.490;9.222;2023-07-16T07:56:28;5.40;;;5.10;;
6485;SDS011;3276;48.490;9.222;2023-07-16T07:58:55;5.73;;;5.43;;
6485;SDS011;3276;48.490;9.222;2023-07-16T08:01:21;6.00;;;5.60;;
6485;SDS011;3276;48.490;9.222;2023-07-16T08:03:46;6.20;;;5.70;;
6485;SDS011;3276;48.490;9.222;2023-07-16T08:06:12;7.57;;;5.77;;
6485;SDS011;3276;48.490;9.222;2023-07-16T08:08:38;5.40;;;5.10;;
6485;SDS011;3276;48.490;9.222;2023-07-16T08:11:03;5.27;;;4.87;;
6485;SDS011;3276;48.490;9.222;2023-07-16T08:13:29;4.97;;;4.67;;
6485;SDS011;3276;48.490;9.222;2023-07-16T08:15:54;5.60;;;5.20;;
6485;SDS011;3276;48.490;9.222;2023-07-16T08:18:20;6.30;;;5.23;;
6485;SDS011;3276;48.490;9.222;2023-07-16T08:20:46;5.00;;;4.70;;
6485;SDS011;3276;48.490;9.222;2023-07-16T08:23:12;4.93;;;4.53;;
6485;SDS011;3276;48.490;9.222;2023-07-16T08:25:38;4.60;;;4.30;;
6485;SDS011;3276;48.490;9.222;2023-07-16T08:28:04;6.97;;;4.83;;
6485;SDS011;3276;48.490;9.222;2023-07-16T08:30:30;4.80;;;4.50;;
6485;SDS011;3276;48.490;9.222;2023-07-16T08:32:57;5.80;;;5.00;;
6485;SDS011;3276;48.490;9.222;2023-07-16T08:35:23;5.20;;;4.90;;
6485;SDS011;3276;48.490;9.222;2023-07-16T08:37:48;5.33;;;4.93;;
6485;SDS011;3276;48.490;9.222;2023-07-16T08:40:14;4.90;;;4.60;;
6485;SDS011;3276;48.490;9.222;2023-07-16T08:42:39;4.93;;;4.63;;
6485;SDS011;3276;48.490;9.222;2023-07-16T08:45:06;4.60;;;4.30;;
6485;SDS011;3276;48.490;9.222;2023-07-16T08:47:34;4.90;;;4.60;;
6485;SDS011;3276;48.490;9.222;2023-07-16T08:50:00;10.07;;;4.70;;
6485;SDS011;3276;48.490;9.222;2023-07-16T08:52:27;4.80;;;4.40;;
6485;SDS011;3276;48.490;9.222;2023-07-16T08:54:53;5.10;;;4.80;;
6485;SDS011;3276;48.490;9.222;2023-07-16T08:57:20;4.27;;;4.00;;
6485;SDS011;3276;48.490;9.222;2023-07-16T08:59:47;3.97;;;3.67;;
6485;SDS011;3276;48.490;9.222;2023-07-16T09:02:14;4.10;;;3.80;;
6485;SDS011;3276;48.490;9.222;2023-07-16T09:04:42;4.27;;;3.90;;
6485;SDS011;3276;48.490;9.222;2023-07-16T09:07:07;4.90;;;4.50;;
6485;SDS011;3276;48.490;9.222;2023-07-16T09:09:33;4.27;;;3.97;;
6485;SDS011;3276;48.490;9.222;2023-07-16T09:11:58;4.03;;;3.73;;
6485;SDS011;3276;48.490;9.222;2023-07-16T09:14:24;5.23;;;4.17;;
6485;SDS011;3276;48.490;9.222;2023-07-16T09:16:53;4.80;;;4.50;;
6485;SDS011;3276;48.490;9.222;2023-07-16T09:19:19;4.97;;;4.53;;
6485;SDS011;3276;48.490;9.222;2023-07-16T09:21:46;4.43;;;4.07;;
6485;SDS011;3276;48.490;9.222;2023-07-16T09:24:15;4.23;;;3.83;;
6485;SDS011;3276;48.490;9.222;2023-07-16T09:26:51;3.70;;;3.50;;
6485;SDS011;3276;48.490;9.222;2023-07-16T09:29:17;4.60;;;3.90;;
6485;SDS011;3276;48.490;9.222;2023-07-16T09:31:57;3.53;;;3.33;;
6485;SDS011;3276;48.490;9.222;2023-07-16T09:34:26;3.83;;;3.50;;
6485;SDS011;3276;48.490;9.222;2023-07-16T09:36:53;4.53;;;3.37;;
6485;SDS011;3276;48.490;9.222;2023-07-16T09:39:19;3.63;;;3.43;;
6485;SDS011;3276;48.490;9.222;2023-07-16T09:41:48;7.27;;;3.80;;
6485;SDS011;3276;48.490;9.222;2023-07-16T09:44:15;5.13;;;3.50;;
6485;SDS011;3276;48.490;9.222;2023-07-16T09:46:41;3.50;;;3.20;;
6485;SDS011;3276;48.490;9.222;2023-07-16T09:49:08;3.70;;;3.40;;
6485;SDS011;3276;48.490;9.222;2023-07-16T09:51:38;5.13;;;4.77;;
6485;SDS011;3276;48.490;9.222;2023-07-16T09:54:04;4.00;;;3.70;;
6485;SDS011;3276;48.490;9.222;2023-07-16T09:56:40;3.70;;;3.40;;
6485;SDS011;3276;48.490;9.222;2023-07-16T09:59:16;4.40;;;4.00;;
6485;SDS011;3276;48.490;9.222;2023-07-16T10:01:44;5.20;;;3.53;;
6485;SDS011;3276;48.490;9.222;2023-07-16T10:04:14;3.90;;;3.60;;
6485;SDS011;3276;48.490;9.222;2023-07-16T10:09:39;3.80;;;3.50;;
6485;SDS011;3276;48.490;9.222;2023-07-16T10:12:19;3.90;;;3.60;;
6485;SDS011;3276;48.490;9.222;2023-07-16T10:14:46;3.93;;;3.53;;
6485;SDS011;3276;48.490;9.222;2023-07-16T10:17:13;3.97;;;3.60;;
6485;SDS011;3276;48.490;9.222;2023-07-16T10:22:36;4.17;;;3.20;;
6485;SDS011;3276;48.490;9.222;2023-07-16T10:25:10;5.17;;;3.70;;
6485;SDS011;3276;48.490;9.222;2023-07-16T10:27:47;4.47;;;4.07;;
6485;SDS011;3276;48.490;9.222;2023-07-16T10:30:14;3.90;;;3.40;;
6485;SDS011;3276;48.490;9.222;2023-07-16T10:32:41;4.50;;;4.07;;
6485;SDS011;3276;48.490;9.222;2023-07-16T10:35:07;3.80;;;3.50;;
6485;SDS011;3276;48.490;9.222;2023-07-16T10:37:34;3.73;;;3.37;;
6485;SDS011;3276;48.490;9.222;2023-07-16T10:40:00;4.00;;;3.60;;
6485;SDS011;3276;48.490;9.222;2023-07-16T10:42:28;3.97;;;3.67;;
6485;SDS011;3276;48.490;9.222;2023-07-16T10:44:56;4.23;;;3.83;;
6485;SDS011;3276;48.490;9.222;2023-07-16T10:47:24;4.00;;;3.60;;
6485;SDS011;3276;48.490;9.222;2023-07-16T10:49:57;4.47;;;3.37;;
6485;SDS011;3276;48.490;9.222;2023-07-16T10:52:23;4.03;;;3.00;;
6485;SDS011;3276;48.490;9.222;2023-07-16T10:54:52;6.43;;;3.87;;
6485;SDS011;3276;48.490;9.222;2023-07-16T10:57:23;6.87;;;4.07;;
6485;SDS011;3276;48.490;9.222;2023-07-16T10:59:50;4.50;;;3.27;;
6485;SDS011;3276;48.490;9.222;2023-07-16T11:02:16;4.60;;;4.20;;
6485;SDS011;3276;48.490;9.222;2023-07-16T11:04:43;4.40;;;4.10;;
6485;SDS011;3276;48.490;9.222;2023-07-16T11:07:11;5.20;;;3.90;;
6485;SDS011;3276;48.490;9.222;2023-07-16T11:09:40;3.37;;;3.17;;
6485;SDS011;3276;48.490;9.222;2023-07-16T11:12:10;4.33;;;3.80;;
6485;SDS011;3276;48.490;9.222;2023-07-16T11:14:37;2.97;;;2.77;;
6485;SDS011;3276;48.490;9.222;2023-07-16T11:17:07;5.87;;;4.23;;
6485;SDS011;3276;48.490;9.222;2023-07-16T11:19:34;4.07;;;3.30;;
6485;SDS011;3276;48.490;9.222;2023-07-16T11:22:01;5.10;;;3.83;;
6485;SDS011;3276;48.490;9.222;2023-07-16T11:24:27;4.00;;;3.70;;
6485;SDS011;3276;48.490;9.222;2023-07-16T11:26:54;3.90;;;3.60;;
6485;SDS011;3276;48.490;9.222;2023-07-16T11:29:22;4.43;;;3.87;;
6485;SDS011;3276;48.490;9.222;2023-07-16T11:31:51;3.90;;;3.60;;
6485;SDS011;3276;48.490;9.222;2023-07-16T11:34:20;4.20;;;3.90;;
6485;SDS011;3276;48.490;9.222;2023-07-16T11:36:47;4.20;;;3.90;;
6485;SDS011;3276;48.490;9.222;2023-07-16T11:39:16;3.90;;;3.60;;
6485;SDS011;3276;48.490;9.222;2023-07-16T11:41:42;4.67;;;4.27;;
6485;SDS011;3276;48.490;9.222;2023-07-16T11:44:19;8.73;;;4.20;;
6485;SDS011;3276;48.490;9.222;2023-07-16T11:46:46;4.00;;;3.70;;
6485;SDS011;3276;48.490;9.222;2023-07-16T11:49:11;6.27;;;4.33;;
6485;SDS011;3276;48.490;9.222;2023-07-16T11:51:37;7.87;;;3.97;;
6485;SDS011;3276;48.490;9.222;2023-07-16T11:54:03;4.00;;;3.70;;
6485;SDS011;3276;48.490;9.222;2023-07-16T11:56:28;3.87;;;3.57;;
6485;SDS011;3276;48.490;9.222;2023-07-16T11:58:54;4.33;;;3.97;;
6485;SDS011;3276;48.490;9.222;2023-07-16T12:01:19;4.33;;;4.03;;
6485;SDS011;3276;48.490;9.222;2023-07-16T12:03:45;4.60;;;4.17;;
6485;SDS011;3276;48.490;9.222;2023-07-16T12:06:14;4.30;;;3.50;;
6485;SDS011;3276;48.490;9.222;2023-07-16T12:08:39;4.73;;;3.97;;
6485;SDS011;3276;48.490;9.222;2023-07-16T12:11:05;5.70;;;4.00;;
6485;SDS011;3276;48.490;9.222;2023-07-16T12:13:30;4.47;;;4.07;;
6485;SDS011;3276;48.490;9.222;2023-07-16T12:15:56;3.70;;;3.40;;
6485;SDS011;3276;48.490;9.222;2023-07-16T12:18:22;3.93;;;3.63;;
6485;SDS011;3276;48.490;9.222;2023-07-16T12:20:47;3.60;;;3.40;;
6485;SDS011;3276;48.490;9.222;2023-07-16T12:23:13;4.40;;;4.00;;
6485;SDS011;3276;48.490;9.222;2023-07-16T12:25:38;4.33;;;4.03;;
6485;SDS011;3276;48.490;9.222;2023-07-16T12:28:04;4.03;;;3.73;;
6485;SDS011;3276;48.490;9.222;2023-07-16T12:30:30;5.23;;;4.73;;
6485;SDS011;3276;48.490;9.222;2023-07-16T12:32:55;4.20;;;3.90;;
6485;SDS011;3276;48.490;9.222;2023-07-16T12:35:21;4.70;;;4.30;;
6485;SDS011;3276;48.490;9.222;2023-07-16T12:37:47;3.93;;;3.60;;
6485;SDS011;3276;48.490;9.222;2023-07-16T12:40:12;4.50;;;4.10;;
6485;SDS011;3276;48.490;9.222;2023-07-16T12:42:42;3.63;;;3.43;;
6485;SDS011;3276;48.490;9.222;2023-07-16T12:45:08;4.20;;;3.80;;
6485;SDS011;3276;48.490;9.222;2023-07-16T12:47:33;6.27;;;4.47;;
6485;SDS011;3276;48.490;9.222;2023-07-16T12:50:00;4.33;;;3.93;;
6485;SDS011;3276;48.490;9.222;2023-07-16T12:52:25;4.57;;;4.27;;
6485;SDS011;3276;48.490;9.222;2023-07-16T12:54:51;4.63;;;4.33;;
6485;SDS011;3276;48.490;9.222;2023-07-16T12:57:17;4.13;;;3.77;;
6485;SDS011;3276;48.490;9.222;2023-07-16T12:59:42;4.67;;;4.27;;
6485;SDS011;3276;48.490;9.222;2023-07-16T13:02:08;4.70;;;4.30;;
6485;SDS011;3276;48.490;9.222;2023-07-16T13:04:34;4.47;;;4.17;;
6485;SDS011;3276;48.490;9.222;2023-07-16T13:06:59;4.53;;;3.90;;
6485;SDS011;3276;48.490;9.222;2023-07-16T13:09:25;4.07;;;3.80;;
6485;SDS011;3276;48.490;9.222;2023-07-16T13:11:51;4.17;;;3.57;;
6485;SDS011;3276;48.490;9.222;2023-07-16T13:14:17;4.03;;;3.73;;
6485;SDS011;3276;48.490;9.222;2023-07-16T13:16:42;4.70;;;4.40;;
6485;SDS011;3276;48.490;9.222;2023-07-16T13:19:08;4.57;;;3.97;;
6485;SDS011;3276;48.490;9.222;2023-07-16T13:21:34;4.47;;;4.17;;
6485;SDS011;3276;48.490;9.222;2023-07-16T13:23:59;4.60;;;4.10;;
6485;SDS011;3276;48.490;9.222;2023-07-16T13:26:25;5.30;;;4.80;;
6485;SDS011;3276;48.490;9.222;2023-07-16T13:28:50;4.00;;;3.53;;
6485;SDS011;3276;48.490;9.222;2023-07-16T13:31:17;3.97;;;3.60;;
6485;SDS011;3276;48.490;9.222;2023-07-16T13:33:46;4.23;;;3.93;;
6485;SDS011;3276;48.490;9.222;2023-07-16T13:36:14;4.67;;;4.13;;
6485;SDS011;3276;48.490;9.222;2023-07-16T13:38:40;4.47;;;4.07;;
6485;SDS011;3276;48.490;9.222;2023-07-16T13:41:05;4.20;;;3.90;;
6485;SDS011;3276;48.490;9.222;2023-07-16T13:43:31;4.57;;;4.17;;
6485;SDS011;3276;48.490;9.222;2023-07-16T13:45:56;4.47;;;4.10;;
6485;SDS011;3276;48.490;9.222;2023-07-16T13:48:22;4.40;;;3.87;;
6485;SDS011;3276;48.490;9.222;2023-07-16T13:50:47;3.60;;;3.30;;
6485;SDS011;3276;48.490;9.222;2023-07-16T13:53:16;4.67;;;4.27;;
6485;SDS011;3276;48.490;9.222;2023-07-16T13:55:42;4.77;;;4.37;;
6485;SDS011;3276;48.490;9.222;2023-07-16T13:58:09;4.70;;;4.40;;
6485;SDS011;3276;48.490;9.222;2023-07-16T14:00:34;5.07;;;4.57;;
6485;SDS011;3276;48.490;9.222;2023-07-16T14:03:00;4.50;;;4.10;;
6485;SDS011;3276;48.490;9.222;2023-07-16T14:05:25;4.30;;;4.00;;
6485;SDS011;3276;48.490;9.222;2023-07-16T14:07:52;4.10;;;3.70;;
6485;SDS011;3276;48.490;9.222;2023-07-16T14:10:18;4.03;;;3.73;;
6485;SDS011;3276;48.490;9.222;2023-07-16T14:12:44;3.70;;;3.40;;
6485;SDS011;3276;48.490;9.222;2023-07-16T14:15:10;5.60;;;5.07;;
6485;SDS011;3276;48.490;9.222;2023-07-16T14:17:36;4.37;;;3.70;;
6485;SDS011;3276;48.490;9.222;2023-07-16T14:20:01;4.23;;;3.83;;
6485;SDS011;3276;48.490;9.222;2023-07-16T14:22:28;4.40;;;4.10;;
6485;SDS011;3276;48.490;9.222;2023-07-16T14:24:54;4.10;;;3.80;;
6485;SDS011;3276;48.490;9.222;2023-07-16T14:27:20;5.53;;;4.23;;
6485;SDS011;3276;48.490;9.222;2023-07-16T14:29:53;5.40;;;4.13;;
6485;SDS011;3276;48.490;9.222;2023-07-16T14:32:18;4.67;;;3.73;;
6485;SDS011;3276;48.490;9.222;2023-07-16T14:34:44;4.10;;;3.80;;
6485;SDS011;3276;48.490;9.222;2023-07-16T14:37:10;3.90;;;3.60;;
6485;SDS011;3276;48.490;9.222;2023-07-16T14:39:35;4.40;;;4.10;;
6485;SDS011;3276;48.490;9.222;2023-07-16T14:42:01;4.30;;;3.90;;
6485;SDS011;3276;48.490;9.222;2023-07-16T14:44:29;4.57;;;4.17;;
6485;SDS011;3276;48.490;9.222;2023-07-16T14:46:54;6.90;;;4.37;;
6485;SDS011;3276;48.490;9.222;2023-07-16T14:49:20;4.80;;;4.37;;
6485;SDS011;3276;48.490;9.222;2023-07-16T14:51:46;4.27;;;3.97;;
6485;SDS011;3276;48.490;9.222;2023-07-16T14:54:11;4.33;;;3.93;;
6485;SDS011;3276;48.490;9.222;2023-07-16T14:56:37;5.00;;;4.50;;
6485;SDS011;3276;48.490;9.222;2023-07-16T14:59:02;4.70;;;4.00;;
6485;SDS011;3276;48.490;9.222;2023-07-16T15:01:28;4.60;;;4.20;;
6485;SDS011;3276;48.490;9.222;2023-07-16T15:03:54;4.43;;;3.93;;
6485;SDS011;3276;48.490;9.222;2023-07-16T15:06:20;5.53;;;4.30;;
6485;SDS011;3276;48.490;9.222;2023-07-16T15:08:45;4.40;;;4.00;;
6485;SDS011;3276;48.490;9.222;2023-07-16T15:11:11;10.83;;;5.07;;
6485;SDS011;3276;48.490;9.222;2023-07-16T15:13:37;4.37;;;4.00;;
6485;SDS011;3276;48.490;9.222;2023-07-16T15:16:02;4.83;;;4.40;;
6485;SDS011;3276;48.490;9.222;2023-07-16T15:18:29;4.57;;;4.20;;
6485;SDS011;3276;48.490;9.222;2023-07-16T15:20:55;4.07;;;3.80;;
6485;SDS011;3276;48.490;9.222;2023-07-16T15:23:23;4.30;;;4.00;;